sensor_id;sensor_type;location;lat;lon;timestamp;pressure;altitude;pressure_sealevel;temperature;humidity
29331;BME280;16331;52.528;13.342;2023-08-06T00:01:46;160981.09;;;19.19;100.00
29331;BME280;16331;52.528;13.342;2023-08-06T00:04:12;160967.31;;;19.14;100.00
29331;BME280;16331;52.528;13.342;2023-08-06T00:06:38;160956.22;;;19.10;100.00
29331;BME280;16331;52.528;13.342;2023-08-06T00:09:04;160975.59;;;19.17;100.00
29331;BME280;16331;52.528;13.342;2023-08-06T00:11:30;160898.19;;;18.89;100.00
29331;BME280;16331;52.528;13.342;2023-08-06T00:13:56;160573.50;;;19.03;100.00
29331;BME280;16331;52.528;13.342;2023-08-06T00:16:22;160877.19;;;19.14;100.00
29331;BME280;16331;52.528;13.342;2023-08-06T00:18:48;160748.34;;;19.00;100.00
29331;BME280;16331;52.528;13.342;2023-08-06T00:21:14;160481.66;;;18.93;100.00
29331;BME280;16331;52.528;13.342;2023-08-06T00:23:41;160738.31;;;18.86;100.00
29331;BME280;16331;52.528;13.342;2023-08-06T00:26:07;158255.84;;;19.11;100.00
29331;BME280;16331;52.528;13.342;2023-08-06T00:28:33;160979.75;;;19.19;100.00
29331;BME280;16331;52.528;13.342;2023-08-06T00:30:59;160976.94;;;19.18;100.00
29331;BME280;16331;52.528;13.342;2023-08-06T00:33:26;160994.91;;;19.24;100.00
29331;BME280;16331;52.528;13.342;2023-08-06T00:35:52;160986.63;;;19.21;100.00
29331;BME280;16331;52.528;13.342;2023-08-06T00:38:21;161007.41;;;19.29;100.00
29331;BME280;16331;52.528;13.342;2023-08-06T00:40:47;161004.59;;;19.28;100.00
29331;BME280;16331;52.528;13.342;2023-08-06T00:43:13;160983.88;;;19.20;100.00
29331;BME280;16331;52.528;13.342;2023-08-06T00:45:39;160912.00;;;18.94;100.00
29331;BME280;16331;52.528;13.342;2023-08-06T00:48:06;160917.53;;;18.96;100.00
29331;BME280;16331;52.528;13.342;2023-08-06T00:50:33;160909.25;;;18.93;100.00
29331;BME280;16331;52.528;13.342;2023-08-06T00:52:59;160910.59;;;18.94;100.00
29331;BME280;16331;52.528;13.342;2023-08-06T00:55:26;160895.44;;;18.88;100.00
29331;BME280;16331;52.528;13.342;2023-08-06T00:57:52;160878.84;;;18.82;100.00
29331;BME280;16331;52.528;13.342;2023-08-06T01:00:22;160892.69;;;18.87;100.00
29331;BME280;16331;52.528;13.342;2023-08-06T01:02:53;160895.44;;;18.88;100.00
29331;BME280;16331;52.528;13.342;2023-08-06T01:05:20;160845.66;;;18.70;100.00
29331;BME280;16331;52.528;13.342;2023-08-06T01:13:47;160912.00;;;18.94;100.00
29331;BME280;16331;52.528;13.342;2023-08-06T01:16:20;160874.72;;;18.81;100.00
29331;BME280;16331;52.528;13.342;2023-08-06T01:18:48;160860.91;;;18.76;100.00
29331;BME280;16331;52.528;13.342;2023-08-06T01:21:18;160798.72;;;18.53;100.00
29331;BME280;16331;52.528;13.342;2023-08-06T01:23:48;160827.72;;;18.63;100.00
29331;BME280;16331;52.528;13.342;2023-08-06T01:26:24;160852.59;;;18.73;100.00
29331;BME280;16331;52.528;13.342;2023-08-06T01:29:10;160867.78;;;18.78;100.00
29331;BME280;16331;52.528;13.342;2023-08-06T01:31:39;160844.28;;;18.69;100.00
29331;BME280;16331;52.528;13.342;2023-08-06T01:34:28;160829.09;;;18.64;100.00
29331;BME280;16331;52.528;13.342;2023-08-06T01:37:00;160775.22;;;18.44;100.00
29331;BME280;16331;52.528;13.342;2023-08-06T01:39:26;158624.00;;;18.52;100.00
29331;BME280;16331;52.528;13.342;2023-08-06T01:41:52;157932.16;;;18.56;100.00
29331;BME280;16331;52.528;13.342;2023-08-06T01:44:22;154677.53;;;18.61;100.00
29331;BME280;16331;52.528;13.342;2023-08-06T01:46:48;160842.94;;;18.69;100.00
29331;BME280;16331;52.528;13.342;2023-08-06T01:49:14;160899.56;;;18.90;100.00
29331;BME280;16331;52.528;13.342;2023-08-06T01:51:40;160903.72;;;18.91;100.00
29331;BME280;16331;52.528;13.342;2023-08-06T01:54:06;160892.69;;;18.87;100.00
29331;BME280;16331;52.528;13.342;2023-08-06T01:56:32;160838.78;;;18.67;100.00
29331;BME280;16331;52.528;13.342;2023-08-06T01:58:58;160681.69;;;18.51;100.00
29331;BME280;16331;52.528;13.342;2023-08-06T02:01:24;152273.09;;;18.45;100.00
29331;BME280;16331;52.528;13.342;2023-08-06T02:03:50;153718.34;;;18.56;100.00
29331;BME280;16331;52.528;13.342;2023-08-06T02:06:17;152029.25;;;18.39;100.00
29331;BME280;16331;52.528;13.342;2023-08-06T02:08:43;147991.91;;;18.43;100.00
29331;BME280;16331;52.528;13.342;2023-08-06T02:11:09;146895.91;;;18.42;100.00
29331;BME280;16331;52.528;13.342;2023-08-06T02:13:36;144354.47;;;18.45;100.00
29331;BME280;16331;52.528;13.342;2023-08-06T02:16:02;142530.25;;;18.44;100.00
29331;BME280;16331;52.528;13.342;2023-08-06T02:18:28;137755.13;;;18.24;100.00
29331;BME280;16331;52.528;13.342;2023-08-06T02:20:59;129730.25;;;18.07;100.00
29331;BME280;16331;52.528;13.342;2023-08-06T02:23:26;119243.47;;;18.11;100.00
29331;BME280;16331;52.528;13.342;2023-08-06T02:26:03;119990.22;;;18.23;100.00
29331;BME280;16331;52.528;13.342;2023-08-06T02:28:30;124354.22;;;18.33;100.00
29331;BME280;16331;52.528;13.342;2023-08-06T02:30:57;125431.97;;;18.29;100.00
29331;BME280;16331;52.528;13.342;2023-08-06T02:33:23;126903.94;;;18.40;100.00
29331;BME280;16331;52.528;13.342;2023-08-06T02:35:49;127263.03;;;18.38;100.00
29331;BME280;16331;52.528;13.342;2023-08-06T02:38:18;125813.72;;;18.38;100.00
29331;BME280;16331;52.528;13.342;2023-08-06T02:40:45;125449.28;;;18.37;100.00
29331;BME280;16331;52.528;13.342;2023-08-06T02:43:12;125097.88;;;18.42;100.00
29331;BME280;16331;52.528;13.342;2023-08-06T02:45:38;126912.66;;;18.44;100.00
29331;BME280;16331;52.528;13.342;2023-08-06T02:48:05;129076.66;;;18.39;100.00
29331;BME280;16331;52.528;13.342;2023-08-06T02:50:37;127634.25;;;18.42;100.00
29331;BME280;16331;52.528;13.342;2023-08-06T02:53:03;124367.13;;;18.39;100.00
29331;BME280;16331;52.528;13.342;2023-08-06T02:55:29;120002.66;;;18.29;100.00
29331;BME280;16331;52.528;13.342;2023-08-06T02:57:55;117100.91;;;18.24;100.00
29331;BME280;16331;52.528;13.342;2023-08-06T03:00:21;111321.38;;;18.22;100.00
29331;BME280;16331;52.528;13.342;2023-08-06T03:02:48;109882.81;;;18.24;100.00
29331;BME280;16331;52.528;13.342;2023-08-06T03:05:14;109516.63;;;18.21;100.00
29331;BME280;16331;52.528;13.342;2023-08-06T03:07:40;106984.91;;;18.16;100.00
29331;BME280;16331;52.528;13.342;2023-08-06T03:10:06;101195.03;;;17.98;100.00
29331;BME280;16331;52.528;13.342;2023-08-06T03:12:33;99385.16;;;17.90;100.00
29331;BME280;16331;52.528;13.342;2023-08-06T03:14:59;95085.06;;;17.95;100.00
29331;BME280;16331;52.528;13.342;2023-08-06T03:17:25;94722.09;;;17.93;100.00
29331;BME280;16331;52.528;13.342;2023-08-06T03:19:51;94353.47;;;17.87;100.00
29331;BME280;16331;52.528;13.342;2023-08-06T03:22:17;95056.94;;;17.78;100.00
29331;BME280;16331;52.528;13.342;2023-08-06T03:24:43;92888.16;;;17.68;100.00
29331;BME280;16331;52.528;13.342;2023-08-06T03:27:09;89303.97;;;17.67;100.00
29331;BME280;16331;52.528;13.342;2023-08-06T03:29:35;86799.88;;;17.68;100.00
29331;BME280;16331;52.528;13.342;2023-08-06T03:32:01;86811.25;;;17.75;100.00
29331;BME280;16331;52.528;13.342;2023-08-06T03:34:27;84661.03;;;17.73;100.00
29331;BME280;16331;52.528;13.342;2023-08-06T03:36:53;83239.56;;;17.79;100.00
29331;BME280;16331;52.528;13.342;2023-08-06T03:39:19;83947.31;;;17.74;100.00
29331;BME280;16331;52.528;13.342;2023-08-06T03:41:45;82165.75;;;17.78;100.00
29331;BME280;16331;52.528;13.342;2023-08-06T03:44:11;80379.25;;;17.78;100.00
29331;BME280;16331;52.528;13.342;2023-08-06T03:46:38;79988.34;;;17.54;100.00
29331;BME280;16331;52.528;13.342;2023-08-06T03:49:07;76417.88;;;17.52;100.00
29331;BME280;16331;52.528;13.342;2023-08-06T03:51:33;75003.44;;;17.61;100.00
29331;BME280;16331;52.528;13.342;2023-08-06T03:53:59;75000.78;;;17.59;100.00
29331;BME280;16331;52.528;13.342;2023-08-06T03:56:25;74637.06;;;17.54;100.00
29331;BME280;16331;52.528;13.342;2023-08-06T03:58:51;73919.63;;;17.50;100.00
29331;BME280;16331;52.528;13.342;2023-08-06T04:01:17;72510.38;;;17.63;100.00
29331;BME280;16331;52.528;13.342;2023-08-06T04:03:43;73225.00;;;17.64;100.00
29331;BME280;16331;52.528;13.342;2023-08-06T04:06:09;74643.63;;;17.59;100.00
29331;BME280;16331;52.528;13.342;2023-08-06T04:08:35;74292.38;;;17.63;100.00
29331;BME280;16331;52.528;13.342;2023-08-06T04:11:01;72857.72;;;17.56;100.00
29331;BME280;16331;52.528;13.342;2023-08-06T04:13:29;69659.88;;;17.62;100.00
29331;BME280;16331;52.528;13.342;2023-08-06T04:16:01;70023.94;;;17.68;100.00
29331;BME280;16331;52.528;13.342;2023-08-06T04:18:28;73951.53;;;17.75;100.00
29331;BME280;16331;52.528;13.342;2023-08-06T04:20:54;76783.97;;;17.59;100.00
29331;BME280;16331;52.528;13.342;2023-08-06T04:23:21;75364.66;;;17.65;100.00
29331;BME280;16331;52.528;13.342;2023-08-06T04:25:47;75354.06;;;17.57;100.00
29331;BME280;16331;52.528;13.342;2023-08-06T04:28:13;76043.81;;;17.39;100.00
29331;BME280;16331;52.528;13.342;2023-08-06T04:30:39;73195.28;;;17.41;100.00
29331;BME280;16331;52.528;13.342;2023-08-06T04:33:05;72836.47;;;17.39;100.00
29331;BME280;16331;52.528;13.342;2023-08-06T04:35:31;73528.22;;;17.23;100.00
29331;BME280;16331;52.528;13.342;2023-08-06T04:37:57;71773.09;;;17.43;100.00
29331;BME280;16331;52.528;13.342;2023-08-06T04:40:23;75331.50;;;17.40;100.00
29331;BME280;16331;52.528;13.342;2023-08-06T04:42:49;74993.53;;;17.54;100.00
29331;BME280;16331;52.528;13.342;2023-08-06T04:45:16;79279.91;;;17.58;100.00
29331;BME280;16331;52.528;13.342;2023-08-06T04:47:42;78549.50;;;17.46;100.00
29331;BME280;16331;52.528;13.342;2023-08-06T04:50:08;77124.47;;;17.47;100.00
29331;BME280;16331;52.528;13.342;2023-08-06T04:52:34;79270.88;;;17.51;100.00
29331;BME280;16331;52.528;13.342;2023-08-06T04:55:00;76433.34;;;17.64;100.00
29331;BME280;16331;52.528;13.342;2023-08-06T04:57:26;78952.78;;;17.79;100.00
29331;BME280;16331;52.528;13.342;2023-08-06T04:59:52;82884.97;;;17.81;100.00
29331;BME280;16331;52.528;13.342;2023-08-06T05:02:18;83240.31;;;17.79;100.00
29331;BME280;16331;52.528;13.342;2023-08-06T05:04:44;83594.16;;;17.77;100.00
29331;BME280;16331;52.528;13.342;2023-08-06T05:07:11;85379.38;;;17.75;100.00
29331;BME280;16331;52.528;13.342;2023-08-06T05:09:37;84623.28;;;17.47;100.00
29331;BME280;16331;52.528;13.342;2023-08-06T05:12:05;78885.53;;;17.30;100.00
29331;BME280;16331;52.528;13.342;2023-08-06T05:14:31;75701.31;;;17.50;100.00
29331;BME280;16331;52.528;13.342;2023-08-06T05:16:57;76114.78;;;17.92;100.00
29331;BME280;16331;52.528;13.342;2023-08-06T05:19:23;83268.00;;;17.98;100.00
29331;BME280;16331;52.528;13.342;2023-08-06T05:21:49;88983.97;;;17.91;100.00
29331;BME280;16331;52.528;13.342;2023-08-06T05:24:15;88266.91;;;17.91;100.00
29331;BME280;16331;52.528;13.342;2023-08-06T05:26:41;90769.81;;;17.88;100.00
29331;BME280;16331;52.528;13.342;2023-08-06T05:29:12;91853.00;;;17.93;100.00
29331;BME280;16331;52.528;13.342;2023-08-06T05:31:38;92949.69;;;18.06;100.00
29331;BME280;16331;52.528;13.342;2023-08-06T05:34:04;100502.34;;;18.13;100.00
29331;BME280;16331;52.528;13.342;2023-08-06T05:36:30;102316.28;;;18.22;100.00
29331;BME280;16331;52.528;13.342;2023-08-06T05:38:56;104472.66;;;18.20;100.00
29331;BME280;16331;52.528;13.342;2023-08-06T05:41:22;101233.75;;;18.20;100.00
29331;BME280;16331;52.528;13.342;2023-08-06T05:43:50;103392.09;;;18.20;100.00
29331;BME280;16331;52.528;13.342;2023-08-06T05:46:16;106644.16;;;18.26;100.00
29331;BME280;16331;52.528;13.342;2023-08-06T05:48:42;105581.06;;;18.36;100.00
29331;BME280;16331;52.528;13.342;2023-08-06T05:51:08;108104.97;;;18.37;100.00
29331;BME280;16331;52.528;13.342;2023-08-06T05:53:35;114626.44;;;18.51;100.00
29331;BME280;16331;52.528;13.342;2023-08-06T05:56:01;113131.06;;;18.25;100.00
29331;BME280;16331;52.528;13.342;2023-08-06T05:58:27;112100.06;;;18.51;100.00
29331;BME280;16331;52.528;13.342;2023-08-06T06:00:55;121124.28;;;18.46;100.00
29331;BME280;16331;52.528;13.342;2023-08-06T06:03:21;120358.03;;;18.26;100.00
29331;BME280;16331;52.528;13.342;2023-08-06T06:05:47;119641.06;;;18.29;100.00
29331;BME280;16331;52.528;13.342;2023-08-06T06:08:13;121454.59;;;18.31;100.00
29331;BME280;16331;52.528;13.342;2023-08-06T06:10:39;117115.09;;;18.31;100.00
29331;BME280;16331;52.528;13.342;2023-08-06T06:13:05;109512.81;;;18.19;100.00
29331;BME280;16331;52.528;13.342;2023-08-06T06:15:31;108804.22;;;18.25;100.00
29331;BME280;16331;52.528;13.342;2023-08-06T06:17:57;112398.72;;;18.19;100.00
29331;BME280;16331;52.528;13.342;2023-08-06T06:20:23;106610.91;;;18.08;100.00
29331;BME280;16331;52.528;13.342;2023-08-06T06:22:50;109149.53;;;18.17;100.00
29331;BME280;16331;52.528;13.342;2023-08-06T06:25:16;110264.38;;;18.35;100.00
29331;BME280;16331;52.528;13.342;2023-08-06T06:27:42;112044.75;;;18.23;100.00
29331;BME280;16331;52.528;13.342;2023-08-06T06:30:08;105944.91;;;18.38;100.00
29331;BME280;16331;52.528;13.342;2023-08-06T06:32:34;107009.97;;;18.29;100.00
29331;BME280;16331;52.528;13.342;2023-08-06T06:35:01;107750.19;;;18.40;100.00
29331;BME280;16331;52.528;13.342;2023-08-06T06:37:27;111363.81;;;18.44;100.00
29331;BME280;16331;52.528;13.342;2023-08-06T06:39:53;105968.84;;;18.51;100.00
29331;BME280;16331;52.528;13.342;2023-08-06T06:42:19;110637.50;;;18.41;100.00
29331;BME280;16331;52.528;13.342;2023-08-06T06:44:45;105269.34;;;18.62;100.00
29331;BME280;16331;52.528;13.342;2023-08-06T06:47:11;117982.44;;;19.02;100.00
29331;BME280;16331;52.528;13.342;2023-08-06T06:49:37;137924.88;;;18.96;100.00
29331;BME280;16331;52.528;13.342;2023-08-06T06:52:03;136851.19;;;19.04;100.00
29331;BME280;16331;52.528;13.342;2023-08-06T06:54:30;132818.78;;;18.89;100.00
29331;BME280;16331;52.528;13.342;2023-08-06T06:56:56;122984.78;;;18.70;100.00
29331;BME280;16331;52.528;13.342;2023-08-06T06:59:22;111773.94;;;18.69;100.00
29331;BME280;16331;52.528;13.342;2023-08-06T07:01:48;106392.72;;;18.86;100.00
29331;BME280;16331;52.528;13.342;2023-08-06T07:04:15;118705.13;;;19.02;100.00
29331;BME280;16331;52.528;13.342;2023-08-06T07:06:41;122729.53;;;19.21;100.00
29331;BME280;16331;52.528;13.342;2023-08-06T07:09:07;125560.81;;;18.89;100.00
29331;BME280;16331;52.528;13.342;2023-08-06T07:11:33;119028.00;;;18.83;100.00
29331;BME280;16331;52.528;13.342;2023-08-06T07:14:00;109253.59;;;18.73;100.00
29331;BME280;16331;52.528;13.342;2023-08-06T07:16:26;113942.56;;;18.70;100.00
29331;BME280;16331;52.528;13.342;2023-08-06T07:18:54;116506.25;;;18.88;100.00
29331;BME280;16331;52.528;13.342;2023-08-06T07:21:20;123746.50;;;18.88;100.00
29331;BME280;16331;52.528;13.342;2023-08-06T07:23:46;131749.59;;;18.98;100.00
29331;BME280;16331;52.528;13.342;2023-08-06T07:26:15;139760.13;;;19.03;100.00
29331;BME280;16331;52.528;13.342;2023-08-06T07:28:42;145523.53;;;18.76;100.00
29331;BME280;16331;52.528;13.342;2023-08-06T07:31:08;138941.19;;;18.64;100.00
29331;BME280;16331;52.528;13.342;2023-08-06T07:33:34;126215.19;;;18.56;100.00
29331;BME280;16331;52.528;13.342;2023-08-06T07:36:10;130567.78;;;18.57;100.00
29331;BME280;16331;52.528;13.342;2023-08-06T07:38:37;128406.88;;;18.64;100.00
29331;BME280;16331;52.528;13.342;2023-08-06T07:41:03;144783.41;;;18.71;100.00
29331;BME280;16331;52.528;13.342;2023-08-06T07:43:30;138572.66;;;18.62;100.00
29331;BME280;16331;52.528;13.342;2023-08-06T07:46:00;138253.00;;;18.81;100.00
29331;BME280;16331;52.528;13.342;2023-08-06T07:48:27;140850.03;;;19.02;100.00
29331;BME280;16331;52.528;13.342;2023-08-06T07:50:55;160151.25;;;19.33;100.00
29331;BME280;16331;52.528;13.342;2023-08-06T07:53:22;150014.91;;;19.21;100.00
29331;BME280;16331;52.528;13.342;2023-08-06T07:55:55;159012.44;;;19.43;100.00
29331;BME280;16331;52.528;13.342;2023-08-06T07:58:23;158347.97;;;19.27;100.00
29331;BME280;16331;52.528;13.342;2023-08-06T08:00:50;160492.22;;;19.42;100.00
29331;BME280;16331;52.528;13.342;2023-08-06T08:03:17;161082.13;;;19.56;100.00
29331;BME280;16331;52.528;13.342;2023-08-06T08:05:44;161089.00;;;19.58;100.00
29331;BME280;16331;52.528;13.342;2023-08-06T08:08:10;161008.81;;;19.29;100.00
29331;BME280;16331;52.528;13.342;2023-08-06T08:10:36;160699.28;;;19.33;100.00
29331;BME280;16331;52.528;13.342;2023-08-06T08:13:04;159693.38;;;19.20;100.00
29331;BME280;16331;52.528;13.342;2023-08-06T08:15:31;160680.22;;;19.51;100.00
29331;BME280;16331;52.528;13.342;2023-08-06T08:17:58;161033.72;;;19.38;100.00
29331;BME280;16331;52.528;13.342;2023-08-06T08:20:26;160646.72;;;19.57;100.00
29331;BME280;16331;52.528;13.342;2023-08-06T08:22:58;161083.44;;;19.56;100.00
29331;BME280;16331;52.528;13.342;2023-08-06T08:25:26;161133.25;;;19.74;100.00
29331;BME280;16331;52.528;13.342;2023-08-06T08:27:54;161080.72;;;19.55;100.00
29331;BME280;16331;52.528;13.342;2023-08-06T08:30:23;161111.13;;;19.66;100.00
29331;BME280;16331;52.528;13.342;2023-08-06T08:32:50;161126.34;;;19.72;100.00
29331;BME280;16331;52.528;13.342;2023-08-06T08:35:16;161163.66;;;19.85;100.00
29331;BME280;16331;52.528;13.342;2023-08-06T08:37:44;161122.16;;;19.70;100.00
29331;BME280;16331;52.528;13.342;2023-08-06T08:40:10;161129.09;;;19.73;100.00
29331;BME280;16331;52.528;13.342;2023-08-06T08:42:37;161149.84;;;19.80;100.00
29331;BME280;16331;52.528;13.342;2023-08-06T08:45:06;161131.84;;;19.74;100.00
29331;BME280;16331;52.528;13.342;2023-08-06T08:47:37;156411.50;;;19.64;100.00
29331;BME280;16331;52.528;13.342;2023-08-06T08:50:06;161203.78;;;20.00;100.00
29331;BME280;16331;52.528;13.342;2023-08-06T08:52:36;161266.09;;;20.23;100.00
29331;BME280;16331;52.528;13.342;2023-08-06T08:55:03;161207.94;;;20.01;100.00
29331;BME280;16331;52.528;13.342;2023-08-06T08:57:29;161213.47;;;20.03;100.00
29331;BME280;16331;52.528;13.342;2023-08-06T08:59:58;161149.84;;;19.80;100.00
29331;BME280;16331;52.528;13.342;2023-08-06T09:02:25;155635.00;;;19.95;100.00
29331;BME280;16331;52.528;13.342;2023-08-06T09:04:57;152992.13;;;19.89;100.00
29331;BME280;16331;52.528;13.342;2023-08-06T09:07:34;161192.69;;;19.96;100.00
29331;BME280;16331;52.528;13.342;2023-08-06T09:10:03;159457.38;;;19.67;100.00
29331;BME280;16331;52.528;13.342;2023-08-06T09:12:30;148637.34;;;19.53;100.00
29331;BME280;16331;52.528;13.342;2023-08-06T09:14:59;146122.84;;;19.70;100.00
29331;BME280;16331;52.528;13.342;2023-08-06T09:17:28;143179.75;;;19.60;100.00
29331;BME280;16331;52.528;13.342;2023-08-06T09:19:56;143890.75;;;19.53;100.00
29331;BME280;16331;52.528;13.342;2023-08-06T09:22:22;134758.56;;;19.42;100.00
29331;BME280;16331;52.528;13.342;2023-08-06T09:24:48;129320.50;;;19.49;100.00
29331;BME280;16331;52.528;13.342;2023-08-06T09:27:15;129384.00;;;19.77;100.00
29331;BME280;16331;52.528;13.342;2023-08-06T09:29:43;144670.16;;;19.73;100.00
29331;BME280;16331;52.528;13.342;2023-08-06T09:32:11;140928.88;;;19.34;100.00
29331;BME280;16331;52.528;13.342;2023-08-06T09:34:39;120219.44;;;19.34;100.00
29331;BME280;16331;52.528;13.342;2023-08-06T09:37:08;127504.66;;;19.49;100.00
29331;BME280;16331;52.528;13.342;2023-08-06T09:39:34;130408.22;;;19.48;100.00
29331;BME280;16331;52.528;13.342;2023-08-06T09:42:01;127869.94;;;19.50;100.00
29331;BME280;16331;52.528;13.342;2023-08-06T09:44:30;126804.78;;;19.61;100.00
29331;BME280;16331;52.528;13.342;2023-08-06T09:46:59;133003.09;;;19.70;100.00
29331;BME280;16331;52.528;13.342;2023-08-06T09:51:58;139958.66;;;19.85;100.00
29331;BME280;16331;52.528;13.342;2023-08-06T09:54:26;143943.97;;;19.74;100.00
29331;BME280;16331;52.528;13.342;2023-08-06T09:56:56;153826.69;;;19.64;100.00
29331;BME280;16331;52.528;13.342;2023-08-06T09:59:23;149793.78;;;19.77;100.00
29331;BME280;16331;52.528;13.342;2023-08-06T10:01:50;150100.03;;;19.54;100.00
29331;BME280;16331;52.528;13.342;2023-08-06T10:04:16;144240.69;;;19.47;100.00
29331;BME280;16331;52.528;13.342;2023-08-06T10:06:46;128183.31;;;19.27;100.00
29331;BME280;16331;52.528;13.342;2023-08-06T10:09:12;112202.91;;;19.05;100.00
29331;BME280;16331;52.528;13.342;2023-08-06T10:11:40;103553.66;;;19.10;100.00
29331;BME280;16331;52.528;13.342;2023-08-06T10:14:13;99219.66;;;19.03;100.00
29331;BME280;16331;52.528;13.342;2023-08-06T10:16:42;97394.44;;;18.88;100.00
29331;BME280;16331;52.528;13.342;2023-08-06T10:19:12;93783.03;;;18.77;100.00
29331;BME280;16331;52.528;13.342;2023-08-06T10:21:40;86974.47;;;18.83;100.00
29331;BME280;16331;52.528;13.342;2023-08-06T10:24:08;83383.97;;;18.78;100.00
29331;BME280;16331;52.528;13.342;2023-08-06T10:26:37;80175.19;;;18.87;100.00
29331;BME280;16331;52.528;13.342;2023-08-06T10:29:36;78393.38;;;18.92;100.00
29331;BME280;16331;52.528;13.342;2023-08-06T10:32:04;80182.19;;;18.92;100.00
29331;BME280;16331;52.528;13.342;2023-08-06T10:37:35;78389.25;;;18.89;100.00
29331;BME280;16331;52.528;13.342;2023-08-06T10:40:02;79467.97;;;18.93;100.00
29331;BME280;16331;52.528;13.342;2023-08-06T10:42:30;80905.06;;;18.97;100.00
29331;BME280;16331;52.528;13.342;2023-08-06T10:45:12;87333.00;;;18.83;100.00
29331;BME280;16331;52.528;13.342;2023-08-06T10:47:42;82347.28;;;19.04;100.00
29331;BME280;16331;52.528;13.342;2023-08-06T10:50:14;82326.38;;;18.90;100.00
29331;BME280;16331;52.528;13.342;2023-08-06T10:52:47;80912.16;;;19.02;100.00
29331;BME280;16331;52.528;13.342;2023-08-06T10:55:14;89832.72;;;18.76;100.00
29331;BME280;16331;52.528;13.342;2023-08-06T10:57:40;94152.88;;;18.84;100.00
29331;BME280;16331;52.528;13.342;2023-08-06T11:00:07;95229.13;;;18.83;100.00
29331;BME280;16331;52.528;13.342;2023-08-06T11:02:35;93068.00;;;18.79;100.00
29331;BME280;16331;52.528;13.342;2023-08-06T11:05:09;90200.97;;;18.82;100.00
29331;BME280;16331;52.528;13.342;2023-08-06T11:07:38;88053.22;;;18.85;100.00
29331;BME280;16331;52.528;13.342;2023-08-06T11:10:08;86975.22;;;18.84;100.00
29331;BME280;16331;52.528;13.342;2023-08-06T11:12:36;84827.78;;;18.86;100.00
29331;BME280;16331;52.528;13.342;2023-08-06T11:15:03;82696.03;;;18.98;100.00
29331;BME280;16331;52.528;13.342;2023-08-06T11:17:31;85918.63;;;18.96;100.00
29331;BME280;16331;52.528;13.342;2023-08-06T11:20:06;86272.59;;;18.93;100.00
29331;BME280;16331;52.528;13.342;2023-08-06T11:22:36;107120.34;;;18.89;100.00
29331;BME280;16331;52.528;13.342;2023-08-06T11:25:04;122308.03;;;18.93;100.00
29331;BME280;16331;52.528;13.342;2023-08-06T11:27:32;129211.34;;;19.00;100.00
29331;BME280;16331;52.528;13.342;2023-08-06T11:29:58;153940.34;;;18.86;100.00
29331;BME280;16331;52.528;13.342;2023-08-06T11:32:24;160848.47;;;18.71;100.00
29331;BME280;16331;52.528;13.342;2023-08-06T11:34:52;160815.28;;;18.59;100.00
29331;BME280;16331;52.528;13.342;2023-08-06T11:37:22;160795.91;;;18.52;100.00
29331;BME280;16331;52.528;13.342;2023-08-06T11:39:52;160834.66;;;18.66;100.00
29331;BME280;16331;52.528;13.342;2023-08-06T11:42:18;160818.03;;;18.60;100.00
29331;BME280;16331;52.528;13.342;2023-08-06T11:44:45;153501.72;;;18.55;100.00
29331;BME280;16331;52.528;13.342;2023-08-06T11:47:24;151855.06;;;18.64;100.00
29331;BME280;16331;52.528;13.342;2023-08-06T11:49:53;148772.25;;;18.63;100.00
29331;BME280;16331;52.528;13.342;2023-08-06T11:52:25;137879.75;;;18.77;100.00
29331;BME280;16331;52.528;13.342;2023-08-06T11:55:08;130589.16;;;18.66;100.00
29331;BME280;16331;52.528;13.342;2023-08-06T11:57:39;120456.84;;;18.73;100.00
29331;BME280;16331;52.528;13.342;2023-08-06T12:00:32;123030.38;;;18.92;100.00
29331;BME280;16331;52.528;13.342;2023-08-06T12:03:09;115789.16;;;18.91;100.00
29331;BME280;16331;52.528;13.342;2023-08-06T12:06:11;115101.97;;;19.09;100.00
29331;BME280;16331;52.528;13.342;2023-08-06T12:08:40;111464.09;;;18.96;100.00
29331;BME280;16331;52.528;13.342;2023-08-06T12:11:10;101017.84;;;19.02;100.00
29331;BME280;16331;52.528;13.342;2023-08-06T12:13:36;99917.00;;;18.90;100.00
29331;BME280;16331;52.528;13.342;2023-08-06T12:16:02;98147.84;;;19.08;100.00
29331;BME280;16331;52.528;13.342;2023-08-06T12:18:28;98148.69;;;19.08;100.00
29331;BME280;16331;52.528;13.342;2023-08-06T12:20:59;92038.91;;;19.09;100.00
29331;BME280;16331;52.528;13.342;2023-08-06T12:23:28;91692.50;;;19.17;100.00
29331;BME280;16331;52.528;13.342;2023-08-06T12:25:55;86633.38;;;18.95;100.00
29331;BME280;16331;52.528;13.342;2023-08-06T12:28:23;81639.63;;;19.10;100.00
29331;BME280;16331;52.528;13.342;2023-08-06T12:30:49;79136.56;;;19.12;100.00
29331;BME280;16331;52.528;13.342;2023-08-06T12:33:20;82012.13;;;19.20;100.00
29331;BME280;16331;52.528;13.342;2023-08-06T12:35:49;84861.16;;;19.08;100.00
29331;BME280;16331;52.528;13.342;2023-08-06T12:38:18;89890.72;;;19.13;100.00
29331;BME280;16331;52.528;13.342;2023-08-06T12:40:44;90987.63;;;19.26;100.00
29331;BME280;16331;52.528;13.342;2023-08-06T12:43:11;86675.00;;;19.22;100.00
29331;BME280;16331;52.528;13.342;2023-08-06T12:45:37;88127.78;;;19.34;100.00
29331;BME280;16331;52.528;13.342;2023-08-06T12:48:04;88461.25;;;19.17;100.00